Time;durP1;ratioP1;P1;durP2;ratioP2;P2;SDS_P1;SDS_P2;PMS_P1;PMS_P2;Temp;Humidity;BMP_temperature;BMP_pressure;BME280_temperature;BME280_humidity;BME280_pressure;Samples;Min_cycle;Max_cycle;Signal;HPM_P1;HPM_P2
2022/05/09 00:01:41;;;;;;;4.20;4.00;;;;;;;10.05;80.14;102172.63;6181832;23;20465;-74
2022/05/09 00:04:07;;;;;;;4.20;4.00;;;;;;;9.73;81.80;102123.63;6124913;23;20031;-73
2022/05/09 00:06:34;;;;;;;4.15;3.95;;;;;;;9.99;82.07;102160.50;6112811;23;20545;-72
2022/05/09 00:09:00;;;;;;;4.20;4.00;;;;;;;10.02;81.67;102192.81;6138702;23;20009;-73
2022/05/09 00:11:27;;;;;;;4.40;4.20;;;;;;;9.94;81.97;102162.41;6129463;23;20029;-73
2022/05/09 00:13:53;;;;;;;4.20;4.00;;;;;;;8.89;81.19;101995.59;6135048;23;20032;-73
2022/05/09 00:16:21;;;;;;;6.53;6.22;;;;;;;9.32;81.48;102074.00;6081454;23;20056;-72
2022/05/09 00:18:47;;;;;;;4.10;3.90;;;;;;;9.68;81.76;102135.97;6112379;23;20450;-73
2022/05/09 00:21:14;;;;;;;5.40;5.20;;;;;;;9.82;81.16;102167.94;6101611;23;20013;-72
2022/05/09 00:23:40;;;;;;;4.20;4.00;;;;;;;9.22;81.20;102055.91;6123781;23;20021;-72
2022/05/09 00:26:07;;;;;;;6.00;5.70;;;;;;;9.15;80.59;102056.06;6136292;23;20040;-73
2022/05/09 00:28:34;;;;;;;4.20;4.00;;;;;;;9.82;80.60;102153.97;6127377;23;20032;-74
2022/05/09 00:31:01;;;;;;;5.53;5.32;;;;;;;9.81;79.99;102155.75;6136909;23;20029;-74
2022/05/09 00:33:27;;;;;;;4.40;4.20;;;;;;;9.35;80.71;102080.91;6133272;23;20234;-74
2022/05/09 00:35:54;;;;;;;4.10;3.90;;;;;;;9.77;80.03;102148.88;6132629;23;20052;-74
2022/05/09 00:38:20;;;;;;;4.38;4.18;;;;;;;9.57;79.64;102128.41;6135256;23;20387;-74
2022/05/09 00:43:34;;;;;;;3.95;3.80;;;;;;;9.78;79.97;102153.19;6121272;23;20013;-72
2022/05/09 00:46:02;;;;;;;4.75;4.55;;;;;;;9.54;79.85;102110.13;6129473;23;20467;-73
2022/05/09 00:48:29;;;;;;;3.92;3.78;;;;;;;9.59;79.00;102123.97;6127776;23;20064;-72
2022/05/09 00:50:56;;;;;;;4.20;4.00;;;;;;;9.76;79.92;102153.25;6130418;23;20084;-74
2022/05/09 00:53:25;;;;;;;4.32;4.13;;;;;;;9.72;79.98;102146.38;6127087;23;20034;-73
2022/05/09 00:55:59;;;;;;;4.30;4.10;;;;;;;9.16;80.11;102065.66;6131217;23;20045;-74
2022/05/09 00:58:36;;;;;;;4.60;4.40;;;;;;;9.60;80.18;102151.91;6131780;23;20033;-73
2022/05/09 01:01:03;;;;;;;5.70;5.45;;;;;;;8.94;80.62;102038.22;6133185;23;20029;-72
2022/05/09 01:03:38;;;;;;;4.30;4.10;;;;;;;9.51;80.76;102145.13;6145523;23;20655;-74
2022/05/09 01:06:04;;;;;;;5.47;5.28;;;;;;;9.47;81.80;102146.09;6160104;23;20020;-73
2022/05/09 01:08:34;;;;;;;4.47;4.28;;;;;;;9.45;81.87;102140.03;6162939;23;20456;-74
2022/05/09 01:11:09;;;;;;;5.78;5.47;;;;;;;9.44;82.54;102148.81;6162938;23;20009;-72
2022/05/09 01:13:43;;;;;;;4.40;4.20;;;;;;;9.38;82.33;102144.59;6161080;23;20035;-74
2022/05/09 01:16:10;;;;;;;5.15;4.95;;;;;;;9.35;83.13;102149.03;6157373;23;20017;-74
2022/05/09 01:18:38;;;;;;;3.95;3.80;;;;;;;9.28;83.48;102142.19;6155321;23;20637;-74
2022/05/09 01:21:32;;;;;;;5.32;5.13;;;;;;;9.14;83.21;102117.22;6160809;23;20025;-75
2022/05/09 01:23:58;;;;;;;4.43;4.22;;;;;;;9.21;83.56;102136.25;6156088;23;20028;-74
2022/05/09 01:26:25;;;;;;;3.90;3.70;;;;;;;8.79;84.60;102079.59;6132518;23;20197;-74
2022/05/09 01:28:51;;;;;;;4.10;3.90;;;;;;;9.16;85.06;102140.72;6155823;23;20024;-74
2022/05/09 01:31:18;;;;;;;4.80;4.60;;;;;;;9.14;84.65;102135.53;6129103;23;20081;-73
2022/05/09 01:33:51;;;;;;;4.20;4.00;;;;;;;8.76;84.98;102069.19;6142908;23;20039;-73
2022/05/09 01:36:28;;;;;;;4.72;4.53;;;;;;;8.76;84.85;102078.81;6149860;23;20014;-74
2022/05/09 01:39:04;;;;;;;4.20;4.00;;;;;;;9.06;85.68;102126.13;6168154;23;20068;-75
2022/05/09 01:41:39;;;;;;;4.25;4.05;;;;;;;9.03;84.87;102131.44;6157562;23;20035;-75
2022/05/09 01:44:07;;;;;;;5.22;5.03;;;;;;;9.02;86.81;102127.97;6151481;23;20641;-75
2022/05/09 01:46:34;;;;;;;4.15;3.95;;;;;;;8.85;85.87;102110.00;6146800;23;20019;-76
2022/05/09 01:51:47;;;;;;;4.10;3.90;;;;;;;8.86;85.55;102113.47;6160434;23;20558;-76
2022/05/09 01:54:16;;;;;;;5.18;4.97;;;;;;;8.54;85.03;102049.66;6161172;23;20421;-73
2022/05/09 01:56:43;;;;;;;4.07;3.88;;;;;;;8.37;84.92;102022.03;6160604;23;20040;-73
2022/05/09 01:59:11;;;;;;;5.53;5.32;;;;;;;8.62;85.62;102071.28;6129706;23;20028;-73
2022/05/09 02:01:41;;;;;;;4.00;3.80;;;;;;;8.56;86.19;102063.56;6159501;23;20019;-73
2022/05/09 02:04:11;;;;;;;5.85;5.55;;;;;;;8.54;86.87;102067.97;6149220;23;20548;-74
2022/05/09 02:06:39;;;;;;;4.25;4.05;;;;;;;8.81;86.53;102121.44;6113836;23;20010;-73
2022/05/09 02:09:05;;;;;;;6.03;5.72;;;;;;;8.60;86.30;102107.06;6134318;23;20027;-75
2022/05/09 02:11:32;;;;;;;4.00;3.80;;;;;;;8.49;85.88;102080.25;6139001;23;20237;-73
2022/05/09 02:13:59;;;;;;;4.40;4.20;;;;;;;8.52;85.92;102088.03;6134751;23;20029;-74
2022/05/09 02:16:26;;;;;;;4.20;4.00;;;;;;;8.79;85.64;102141.56;6117268;23;20039;-74
2022/05/09 02:18:53;;;;;;;4.32;4.13;;;;;;;8.76;85.50;102136.41;6137048;23;20035;-72
2022/05/09 02:21:19;;;;;;;4.53;4.32;;;;;;;8.74;86.18;102128.56;6146230;23;20017;-74
2022/05/09 02:23:46;;;;;;;3.90;3.70;;;;;;;8.52;85.82;102096.75;6134930;23;20029;-75
2022/05/09 02:26:12;;;;;;;5.55;5.35;;;;;;;8.73;85.89;102137.31;6148646;23;20100;-74
2022/05/09 02:28:38;;;;;;;3.60;3.50;;;;;;;8.73;85.71;102137.31;6122176;23;20017;-72
2022/05/09 02:31:05;;;;;;;4.90;4.70;;;;;;;8.74;85.69;102136.44;6143485;23;20312;-75
2022/05/09 02:33:32;;;;;;;3.80;3.70;;;;;;;8.37;86.57;102073.50;6112672;23;20089;-74
2022/05/09 02:35:58;;;;;;;3.97;3.80;;;;;;;8.74;86.41;102139.03;6139044;23;20029;-74
2022/05/09 02:38:27;;;;;;;3.65;3.55;;;;;;;8.73;86.46;102139.06;6115855;23;20022;-74
2022/05/09 02:40:54;;;;;;;4.10;3.90;;;;;;;8.70;86.44;102120.78;6137045;23;20480;-74
2022/05/09 02:43:21;;;;;;;4.25;4.05;;;;;;;8.47;87.43;102098.59;6104973;23;20012;-75
2022/05/09 02:45:47;;;;;;;4.18;3.95;;;;;;;8.43;87.20;102096.09;6144629;23;20418;-74
2022/05/09 02:48:15;;;;;;;5.13;4.93;;;;;;;8.04;87.09;102033.19;6137560;23;20082;-74
2022/05/09 02:50:42;;;;;;;4.10;3.90;;;;;;;8.50;90.98;102127.34;6130446;23;20024;-75
2022/05/09 02:53:10;;;;;;;3.95;3.78;;;;;;;8.12;91.20;102070.53;6137784;23;20035;-73
2022/05/09 02:55:36;;;;;;;3.70;3.60;;;;;;;8.37;91.60;102126.66;6133579;23;20012;-73
2022/05/09 02:58:03;;;;;;;5.75;5.45;;;;;;;7.76;91.96;102031.16;6142592;23;20029;-73
2022/05/09 03:00:31;;;;;;;3.70;3.60;;;;;;;8.26;92.23;102119.94;6138459;23;20009;-74
2022/05/09 03:05:45;;;;;;;4.18;3.97;;;;;;;7.76;94.35;102065.13;6106418;23;20033;-73
2022/05/09 03:08:14;;;;;;;5.85;5.55;;;;;;;7.73;93.14;102057.31;6134002;23;20044;-75
2022/05/09 03:10:41;;;;;;;3.85;3.72;;;;;;;8.10;95.17;102124.63;6140928;23;20042;-74
2022/05/09 03:13:09;;;;;;;5.22;5.03;;;;;;;6.67;94.24;101913.81;6129335;23;20098;-74
2022/05/09 03:15:38;;;;;;;3.70;3.60;;;;;;;8.02;94.74;102121.25;6143713;23;20103;-74
2022/05/09 03:18:04;;;;;;;4.82;4.63;;;;;;;7.98;95.39;102115.25;6136411;23;20504;-74
2022/05/09 03:20:31;;;;;;;3.70;3.60;;;;;;;7.95;95.30;102120.53;6137770;23;20036;-74
2022/05/09 03:22:57;;;;;;;3.85;3.72;;;;;;;7.62;95.24;102077.53;6115500;23;20467;-74
2022/05/09 03:25:24;;;;;;;3.97;3.78;;;;;;;7.91;96.61;102118.84;6140806;23;21619;-74
2022/05/09 03:27:51;;;;;;;3.65;3.55;;;;;;;7.87;95.65;102115.41;6136040;23;20031;-73
2022/05/09 03:30:19;;;;;;;4.25;4.05;;;;;;;7.83;95.69;102116.38;6108585;23;20084;-74
2022/05/09 03:32:47;;;;;;;3.80;3.70;;;;;;;7.75;96.90;102105.19;6142473;23;20095;-73
2022/05/09 03:35:14;;;;;;;5.60;5.35;;;;;;;7.79;96.87;102120.78;6110909;23;20021;-74
2022/05/09 03:37:41;;;;;;;3.72;3.63;;;;;;;7.74;97.96;102122.63;6110604;23;20577;-74
2022/05/09 03:40:09;;;;;;;5.28;5.07;;;;;;;7.73;99.31;102118.28;6142245;23;20100;-74
2022/05/09 03:42:35;;;;;;;3.90;3.70;;;;;;;7.66;98.77;102111.47;6079790;23;20021;-73
2022/05/09 03:45:02;;;;;;;3.47;3.38;;;;;;;7.64;99.54;102104.50;6141823;23;20023;-72
2022/05/09 03:47:29;;;;;;;3.80;3.70;;;;;;;6.92;99.25;101994.31;6110151;23;20024;-75
2022/05/09 03:49:57;;;;;;;3.70;3.60;;;;;;;7.26;99.32;102051.19;6142100;23;20177;-75
2022/05/09 03:52:24;;;;;;;4.20;4.00;;;;;;;7.43;99.45;102077.88;6132790;23;20024;-75
2022/05/09 03:54:51;;;;;;;3.60;3.50;;;;;;;7.14;99.45;102041.81;6139227;23;20009;-74
2022/05/09 03:57:17;;;;;;;4.68;4.47;;;;;;;7.63;99.15;102118.47;6136548;23;20017;-76
2022/05/09 03:59:43;;;;;;;4.00;3.80;;;;;;;7.65;99.40;102121.94;6140348;23;20013;-76
2022/05/09 04:02:10;;;;;;;5.15;4.95;;;;;;;7.67;98.54;102134.06;6146720;23;20024;-75
2022/05/09 04:04:37;;;;;;;3.50;3.40;;;;;;;7.67;98.54;102138.44;6138827;23;20520;-74
2022/05/09 04:07:04;;;;;;;4.55;4.35;;;;;;;7.50;98.79;102087.34;6143932;23;20017;-75
2022/05/09 04:09:31;;;;;;;3.85;3.72;;;;;;;7.68;99.28;102112.28;6095453;23;20021;-74
2022/05/09 04:11:58;;;;;;;4.03;3.83;;;;;;;7.28;99.55;102018.09;6142955;23;20076;-74
2022/05/09 04:17:10;;;;;;;5.47;5.28;;;;;;;8.17;98.88;102092.22;6137811;23;20021;-72
2022/05/09 04:19:38;;;;;;;3.63;3.50;;;;;;;8.50;97.91;102113.38;6141088;23;20056;-73
2022/05/09 04:22:04;;;;;;;5.15;4.93;;;;;;;8.51;94.93;102112.50;6127567;23;20021;-73
2022/05/09 04:24:31;;;;;;;3.67;3.58;;;;;;;8.63;93.22;102125.31;6145570;23;20025;-74
2022/05/09 04:26:59;;;;;;;4.15;3.95;;;;;;;8.96;93.64;102125.47;6144765;23;20048;-74
2022/05/09 04:29:25;;;;;;;3.80;3.70;;;;;;;8.85;92.06;102051.56;6097836;23;20013;-76
2022/05/09 04:31:52;;;;;;;4.10;3.90;;;;;;;9.25;90.36;102077.66;6121191;23;20017;-74
2022/05/09 04:34:18;;;;;;;4.40;4.20;;;;;;;9.13;88.49;102015.94;6144114;23;20461;-74
2022/05/09 04:36:45;;;;;;;4.20;4.00;;;;;;;9.95;86.16;102148.38;6143306;23;20088;-77
2022/05/09 04:39:12;;;;;;;5.32;5.13;;;;;;;9.91;85.38;102056.72;6149279;23;20020;-76
2022/05/09 04:41:38;;;;;;;4.35;4.05;;;;;;;10.72;83.73;102127.91;6142436;23;20013;-77
2022/05/09 04:44:05;;;;;;;5.38;5.15;;;;;;;11.09;82.28;102129.41;6143400;23;20036;-76
2022/05/09 04:46:33;;;;;;;4.20;4.00;;;;;;;11.03;79.95;102123.50;6123255;23;20014;-73
2022/05/09 04:49:00;;;;;;;4.70;4.50;;;;;;;11.37;79.19;102112.75;6148201;23;20108;-73
2022/05/09 04:51:26;;;;;;;4.30;4.10;;;;;;;11.82;78.24;102120.00;6125784;23;20025;-74
2022/05/09 04:53:53;;;;;;;4.50;4.30;;;;;;;12.28;76.53;102134.19;6144646;23;20044;-74
2022/05/09 04:56:19;;;;;;;4.60;4.40;;;;;;;12.24;74.18;102098.34;6133829;23;20216;-75
2022/05/09 04:58:46;;;;;;;4.70;4.50;;;;;;;12.56;71.78;102130.53;6123382;23;20084;-75
2022/05/09 05:01:12;;;;;;;5.57;5.38;;;;;;;12.17;70.67;102105.63;6138633;23;20028;-75
2022/05/09 05:03:39;;;;;;;4.40;4.20;;;;;;;11.76;72.21;101978.19;6138404;23;20055;-74
2022/05/09 05:06:06;;;;;;;5.68;5.45;;;;;;;13.18;71.37;102131.66;6125783;23;20025;-73
2022/05/09 05:08:35;;;;;;;4.30;4.10;;;;;;;13.33;70.74;102130.19;6131780;23;20446;-74
2022/05/09 05:11:04;;;;;;;5.25;5.05;;;;;;;13.63;69.23;102137.75;6139491;23;20505;-73
2022/05/09 05:13:33;;;;;;;4.60;4.40;;;;;;;14.11;69.14;102126.00;6112715;23;20025;-73
2022/05/09 05:16:00;;;;;;;5.30;5.10;;;;;;;14.46;67.35;102121.81;6144645;23;20082;-73
2022/05/09 05:18:27;;;;;;;4.93;4.72;;;;;;;14.85;67.21;102122.69;6146039;23;20088;-73
2022/05/09 05:20:55;;;;;;;5.32;5.03;;;;;;;15.22;65.19;102126.22;6137112;23;20499;-73
2022/05/09 05:23:22;;;;;;;5.00;4.80;;;;;;;15.58;63.86;102128.81;6132939;23;20040;-75
2022/05/09 05:25:49;;;;;;;5.20;5.00;;;;;;;15.36;63.70;102086.72;6141767;23;20126;-73
2022/05/09 05:28:16;;;;;;;5.70;5.50;;;;;;;15.54;63.62;102088.41;6136762;23;20412;-74
2022/05/09 05:30:43;;;;;;;4.90;4.70;;;;;;;15.77;62.61;102062.59;6139446;23;20077;-72
2022/05/09 05:33:10;;;;;;;6.20;5.90;;;;;;;16.26;60.07;102112.97;6113554;23;20025;-71
2022/05/09 05:35:36;;;;;;;5.30;5.00;;;;;;;15.75;57.94;102041.50;6141700;23;20009;-74
2022/05/09 05:38:03;;;;;;;6.60;6.28;;;;;;;16.34;57.61;102067.53;6121462;23;20454;-76
2022/05/09 05:40:29;;;;;;;4.93;4.72;;;;;;;16.67;54.96;102132.84;6140542;23;20103;-73
2022/05/09 05:42:56;;;;;;;5.35;5.05;;;;;;;16.25;54.64;102086.53;6122147;23;20018;-73
2022/05/09 05:45:23;;;;;;;5.50;5.30;;;;;;;16.65;55.93;102127.63;6141996;23;20095;-72
2022/05/09 05:47:51;;;;;;;4.90;4.70;;;;;;;16.61;53.92;102067.78;6140513;23;20047;-72
2022/05/09 05:50:22;;;;;;;5.07;4.88;;;;;;;17.19;52.66;102135.25;6136461;23;20009;-76
2022/05/09 05:52:48;;;;;;;6.13;5.82;;;;;;;17.28;52.60;102099.38;6132564;23;20013;-74
2022/05/09 05:55:14;;;;;;;6.95;6.55;;;;;;;17.25;52.11;102073.03;6139596;23;20029;-73
2022/05/09 05:57:41;;;;;;;5.05;4.85;;;;;;;16.87;52.02;102102.59;6108630;23;20375;-75
2022/05/09 06:00:17;;;;;;;6.68;6.38;;;;;;;16.68;52.86;102153.97;6137296;23;20025;-73
2022/05/09 06:02:44;;;;;;;5.50;5.20;;;;;;;15.67;54.91;102125.69;6135941;23;20029;-74
2022/05/09 06:05:12;;;;;;;6.47;6.18;;;;;;;15.54;55.21;102138.69;6103897;23;20029;-72
2022/05/09 06:07:39;;;;;;;5.50;5.20;;;;;;;15.39;56.78;102142.09;6134929;23;20021;-73
2022/05/09 06:10:06;;;;;;;6.22;5.93;;;;;;;14.46;57.85;102055.75;6127527;23;20347;-74
2022/05/09 06:12:33;;;;;;;5.00;4.80;;;;;;;14.16;59.24;102072.09;6130560;23;20433;-73
2022/05/09 06:17:46;;;;;;;5.00;4.80;;;;;;;14.24;61.11;102058.53;6135422;23;20017;-73
2022/05/09 06:20:13;;;;;;;6.75;6.45;;;;;;;14.47;60.61;102069.81;6132674;23;20036;-73
2022/05/09 06:22:40;;;;;;;5.57;5.28;;;;;;;14.38;61.48;102096.69;6131601;23;20073;-74
2022/05/09 06:25:13;;;;;;;6.22;5.93;;;;;;;14.95;61.55;102150.38;6130153;23;20028;-73
2022/05/09 06:27:40;;;;;;;5.00;4.80;;;;;;;15.02;60.16;102143.91;6134645;23;20036;-72
2022/05/09 06:30:10;;;;;;;6.40;6.05;;;;;;;14.30;60.74;102110.22;6124904;23;20511;-73
2022/05/09 06:32:37;;;;;;;6.20;5.05;;;;;;;14.63;61.09;102115.75;6130650;23;20032;-74
2022/05/09 06:35:07;;;;;;;6.72;6.25;;;;;;;15.02;60.42;102145.69;6132129;23;20480;-72
2022/05/09 06:37:36;;;;;;;5.55;5.25;;;;;;;15.16;60.30;102159.09;6105783;23;20274;-75
2022/05/09 06:40:04;;;;;;;6.85;6.45;;;;;;;15.41;59.41;102144.66;6132652;23;20147;-74
2022/05/09 06:42:33;;;;;;;5.43;5.22;;;;;;;15.38;58.31;102129.81;6128816;23;20027;-74
2022/05/09 06:44:59;;;;;;;5.65;5.40;;;;;;;15.06;58.80;102103.16;6133099;23;20021;-72
2022/05/09 06:47:25;;;;;;;5.22;5.00;;;;;;;15.16;57.03;102143.22;6138309;23;20021;-72
2022/05/09 06:49:57;;;;;;;4.80;4.60;;;;;;;14.95;58.29;102143.34;6134743;23;20166;-74
2022/05/09 06:52:24;;;;;;;5.00;4.80;;;;;;;15.06;60.45;102148.09;6129384;23;20024;-74
2022/05/09 06:54:50;;;;;;;5.30;5.10;;;;;;;15.05;58.86;102106.72;6132966;23;20524;-74
2022/05/09 06:57:16;;;;;;;6.05;5.75;;;;;;;15.21;58.82;102138.56;6132003;23;20037;-75
2022/05/09 06:59:43;;;;;;;5.40;5.10;;;;;;;15.29;59.01;102143.47;6137119;23;20035;-73
2022/05/09 07:02:13;;;;;;;6.50;6.10;;;;;;;15.33;59.50;102145.94;6108189;23;20025;-73
2022/05/09 07:04:40;;;;;;;5.30;5.05;;;;;;;15.34;59.57;102144.13;6160842;23;20031;-72
2022/05/09 07:07:07;;;;;;;6.25;5.95;;;;;;;15.41;59.81;102108.47;6165820;23;20111;-72
2022/05/09 07:09:33;;;;;;;5.00;4.80;;;;;;;15.65;59.30;102142.59;6133481;23;20036;-76
2022/05/09 07:11:59;;;;;;;6.07;5.68;;;;;;;15.22;58.18;102049.53;6157766;23;20028;-74
2022/05/09 07:14:26;;;;;;;5.22;5.03;;;;;;;15.52;58.29;102100.03;6163823;23;20480;-72
2022/05/09 07:16:52;;;;;;;4.85;4.65;;;;;;;15.89;58.79;102137.88;6163045;23;20441;-74
2022/05/09 07:19:19;;;;;;;5.20;5.00;;;;;;;16.08;58.23;102132.50;6151712;23;20563;-74
2022/05/09 07:21:45;;;;;;;5.45;5.05;;;;;;;16.08;58.27;102132.50;6141137;23;20035;-73
2022/05/09 07:24:12;;;;;;;7.88;7.10;;;;;;;16.06;58.06;102097.28;6150475;23;20025;-77
2022/05/09 07:26:39;;;;;;;5.50;5.20;;;;;;;16.18;57.25;102098.41;6162427;23;20076;-73
2022/05/09 07:29:06;;;;;;;6.63;6.32;;;;;;;16.42;58.20;102120.09;6158992;23;20324;-75
2022/05/09 07:31:33;;;;;;;4.95;4.75;;;;;;;16.48;56.05;102109.16;6176860;23;20053;-73
2022/05/09 07:34:00;;;;;;;5.45;5.22;;;;;;;16.68;56.58;102126.63;6164163;23;20027;-74
2022/05/09 07:36:27;;;;;;;4.88;4.68;;;;;;;16.58;56.25;102101.53;6145519;23;20403;-73
2022/05/09 07:38:54;;;;;;;5.10;4.90;;;;;;;16.82;55.44;102115.25;6148661;23;20032;-73
2022/05/09 07:41:20;;;;;;;5.35;5.07;;;;;;;16.73;56.02;102071.53;6140282;23;20019;-72
2022/05/09 07:43:46;;;;;;;5.03;4.82;;;;;;;16.58;55.57;102051.19;6161391;23;20098;-72
2022/05/09 07:46:13;;;;;;;6.43;6.13;;;;;;;17.18;54.93;102130.91;6158688;23;20036;-74
2022/05/09 07:48:59;;;;;;;5.43;5.20;;;;;;;17.45;54.58;102124.94;6140919;23;20543;-75
2022/05/09 07:51:26;;;;;;;5.00;4.80;;;;;;;17.64;53.29;102108.78;6128673;23;20036;-74
2022/05/09 07:53:52;;;;;;;5.50;5.20;;;;;;;17.79;53.42;102118.47;6137316;23;20381;-72
2022/05/09 07:56:19;;;;;;;5.38;5.07;;;;;;;17.70;51.56;102105.75;6172629;23;20021;-74
2022/05/09 07:58:45;;;;;;;5.28;5.00;;;;;;;17.64;51.79;102104.34;6131788;23;20021;-73
2022/05/09 08:01:11;;;;;;;6.60;6.30;;;;;;;17.87;52.52;102123.38;6166490;23;20041;-72
2022/05/09 08:03:38;;;;;;;5.97;5.57;;;;;;;16.89;52.65;101942.47;6119531;23;20277;-73
2022/05/09 08:06:05;;;;;;;6.50;6.20;;;;;;;17.79;51.47;102113.16;6126519;23;20084;-74
2022/05/09 08:08:36;;;;;;;5.18;4.93;;;;;;;17.77;52.38;102091.16;6138248;23;20285;-74
2022/05/09 08:11:11;;;;;;;6.28;5.97;;;;;;;18.00;52.09;102120.81;6126978;23;20017;-71
2022/05/09 08:13:39;;;;;;;5.22;5.03;;;;;;;18.04;52.42;102093.13;6127671;23;20348;-73
2022/05/09 08:16:06;;;;;;;7.05;6.03;;;;;;;17.71;52.13;102086.22;6137979;23;20370;-73
2022/05/09 08:18:33;;;;;;;5.10;4.90;;;;;;;18.26;52.86;102125.41;6119582;23;20614;-73
2022/05/09 08:21:01;;;;;;;6.50;6.13;;;;;;;18.59;51.01;102123.38;6139110;23;20029;-75
2022/05/09 08:23:30;;;;;;;5.50;5.20;;;;;;;18.23;51.22;102056.50;6138247;23;20009;-72
2022/05/09 08:25:58;;;;;;;5.00;4.80;;;;;;;18.77;50.59;102126.69;6133283;23;20104;-73
2022/05/09 08:28:25;;;;;;;5.32;5.13;;;;;;;18.23;50.16;102026.41;6105797;23;20009;-72
2022/05/09 08:30:52;;;;;;;5.50;5.30;;;;;;;18.13;50.46;102028.78;6133353;23;20021;-73
2022/05/09 08:33:21;;;;;;;5.40;5.20;;;;;;;18.87;51.08;102112.72;6125669;23;20010;-75
2022/05/09 08:35:51;;;;;;;5.60;5.30;;;;;;;19.08;50.58;102115.78;6105598;23;20025;-72
2022/05/09 08:38:19;;;;;;;5.20;4.90;;;;;;;18.88;50.68;102086.94;6110092;23;20021;-74
2022/05/09 08:41:22;;;;;;;5.65;5.35;;;;;;;19.11;50.49;102109.41;6122826;23;20528;-74
2022/05/09 08:44:00;;;;;;;5.97;5.67;;;;;;;19.36;49.83;102105.94;6125684;23;20024;-74
2022/05/09 08:46:38;;;;;;;5.43;5.13;;;;;;;19.50;50.45;102105.03;6112317;23;20605;-73
2022/05/09 08:49:21;;;;;;;6.45;6.15;;;;;;;19.68;50.05;102101.09;6132076;23;20017;-77
2022/05/09 08:52:15;;;;;;;5.00;4.80;;;;;;;19.87;48.45;102106.06;6135594;23;20084;-73
2022/05/09 08:54:43;;;;;;;5.57;5.32;;;;;;;19.61;49.94;102049.22;6136771;23;20021;-73
2022/05/09 08:57:15;;;;;;;7.05;6.75;;;;;;;19.64;49.19;102051.66;6080243;23;20010;-72
2022/05/09 08:59:56;;;;;;;5.35;5.15;;;;;;;20.21;48.40;102101.03;6139104;23;20041;-72
2022/05/09 09:02:51;;;;;;;5.90;5.60;;;;;;;20.12;48.73;102104.34;6132127;23;20024;-74
2022/05/09 09:05:24;;;;;;;5.60;5.30;;;;;;;20.12;47.52;102093.69;6168941;23;21184;-74
2022/05/09 09:08:09;;;;;;;14.88;14.10;;;;;;;20.04;47.87;102096.88;6116120;23;20380;-72
2022/05/09 09:11:04;;;;;;;6.43;5.95;;;;;;;20.26;49.54;102092.72;6160200;23;20020;-74
2022/05/09 09:13:58;;;;;;;6.68;5.50;;;;;;;20.24;47.91;102091.97;6132408;23;20021;-72
2022/05/09 09:16:24;;;;;;;5.70;5.40;;;;;;;20.40;48.82;102097.06;6170704;23;20012;-74
2022/05/09 09:19:05;;;;;;;5.20;5.00;;;;;;;20.68;47.77;102096.78;6154209;23;20025;-73
2022/05/09 09:21:52;;;;;;;5.60;5.30;;;;;;;20.66;46.40;102092.53;6170609;23;20058;-73
2022/05/09 09:24:37;;;;;;;6.20;5.90;;;;;;;20.26;48.60;102084.72;6097970;23;20078;-72
2022/05/09 09:27:45;;;;;;;6.65;6.35;;;;;;;20.73;47.20;102083.13;6158626;23;20025;-73
2022/05/09 09:30:21;;;;;;;6.85;6.55;;;;;;;20.82;48.46;102090.44;6093792;23;20037;-72
2022/05/09 09:33:03;;;;;;;5.88;5.57;;;;;;;19.86;47.24;101911.69;6101116;23;20025;-73
2022/05/09 09:35:39;;;;;;;5.90;5.40;;;;;;;20.85;46.97;102084.06;6146827;23;20036;-72
2022/05/09 09:38:06;;;;;;;7.00;6.20;;;;;;;20.94;48.09;102077.19;6138800;23;20228;-72
2022/05/09 09:40:33;;;;;;;5.68;5.32;;;;;;;20.98;47.61;102023.44;6154256;23;20028;-73
2022/05/09 09:42:59;;;;;;;6.15;5.85;;;;;;;21.40;45.95;102074.56;6136264;23;20020;-72
2022/05/09 09:45:40;;;;;;;5.90;5.60;;;;;;;21.11;46.96;101994.88;6172276;23;20488;-71
2022/05/09 09:48:13;;;;;;;6.85;6.55;;;;;;;21.75;47.04;102079.06;6166625;23;20039;-72
2022/05/09 09:50:53;;;;;;;5.50;5.20;;;;;;;21.34;47.24;102075.03;6161152;23;20503;-72
2022/05/09 09:53:39;;;;;;;5.90;5.60;;;;;;;21.11;46.29;102032.25;6155886;23;20028;-72
2022/05/09 09:56:34;;;;;;;7.28;6.88;;;;;;;21.43;46.66;102052.13;6164109;23;20185;-71
2022/05/09 09:59:15;;;;;;;5.97;5.68;;;;;;;21.85;46.54;102063.13;6129973;23;20025;-72
2022/05/09 10:01:43;;;;;;;5.47;5.25;;;;;;;21.60;45.15;102003.59;6155176;23;20037;-73
2022/05/09 10:04:25;;;;;;;6.80;6.50;;;;;;;22.25;45.56;102055.53;6136616;23;20012;-71
2022/05/09 10:07:00;;;;;;;6.03;5.63;;;;;;;22.43;44.50;102055.84;6123682;23;20568;-73
2022/05/09 10:09:29;;;;;;;6.22;5.78;;;;;;;22.17;44.18;102054.38;6134342;23;20554;-74
2022/05/09 10:12:15;;;;;;;5.85;5.55;;;;;;;22.24;44.51;102051.13;6121125;23;20024;-72
2022/05/09 10:14:42;;;;;;;6.13;5.82;;;;;;;22.20;44.86;102054.16;6136071;23;20029;-73
2022/05/09 10:17:26;;;;;;;7.57;7.15;;;;;;;22.49;45.98;102044.66;6123117;23;20032;-72
2022/05/09 10:19:55;;;;;;;5.90;5.60;;;;;;;22.64;45.28;102044.38;6143753;23;20096;-74
2022/05/09 10:25:22;;;;;;;7.43;7.03;;;;;;;22.20;45.86;102030.94;6128808;23;20019;-74
2022/05/09 10:28:16;;;;;;;5.95;5.65;;;;;;;22.68;44.66;102035.97;6116022;23;20281;-72
2022/05/09 10:30:47;;;;;;;5.80;5.50;;;;;;;23.00;44.26;102036.94;6132553;23;20116;-72
2022/05/09 10:33:31;;;;;;;6.00;5.70;;;;;;;22.24;43.82;101940.66;6126175;23;20434;-74
2022/05/09 10:36:08;;;;;;;6.07;5.78;;;;;;;22.86;44.18;102004.13;6139827;23;20435;-72
2022/05/09 10:38:45;;;;;;;5.82;5.53;;;;;;;22.90;43.91;101977.97;6121373;23;20081;-73
2022/05/09 10:41:30;;;;;;;5.88;5.57;;;;;;;23.23;44.44;101990.38;6105446;23;20029;-72
2022/05/09 10:44:06;;;;;;;6.38;6.07;;;;;;;22.70;42.17;101921.59;6118481;23;20470;-72
2022/05/09 10:46:46;;;;;;;6.25;5.88;;;;;;;23.32;42.13;102018.19;6131819;23;20020;-72
2022/05/09 10:49:26;;;;;;;7.28;6.72;;;;;;;23.32;42.11;102015.50;6134128;23;20017;-72
2022/05/09 10:52:23;;;;;;;6.70;6.20;;;;;;;23.36;43.09;102019.59;6101386;23;20039;-73
2022/05/09 10:55:09;;;;;;;6.35;5.95;;;;;;;23.14;42.38;101992.97;6129241;23;20019;-72
2022/05/09 10:57:41;;;;;;;7.13;6.60;;;;;;;23.49;42.14;102008.69;6108505;23;20092;-72
2022/05/09 11:00:19;;;;;;;8.15;7.65;;;;;;;23.51;41.90;101969.19;6131226;23;20031;-72
2022/05/09 11:03:15;;;;;;;6.18;5.80;;;;;;;23.80;41.03;102006.91;6129302;23;20452;-72
2022/05/09 11:05:56;;;;;;;6.07;5.78;;;;;;;23.92;41.10;101998.75;6088634;23;20372;-73
2022/05/09 11:08:29;;;;;;;6.57;6.17;;;;;;;23.56;41.95;101921.41;6133574;23;20029;-72
2022/05/09 11:11:33;;;;;;;6.13;5.82;;;;;;;23.66;41.37;101989.31;6131506;23;20092;-73
2022/05/09 11:14:13;;;;;;;6.75;6.40;;;;;;;23.77;40.99;101985.72;6115492;23;20056;-73
2022/05/09 11:16:54;;;;;;;5.97;5.68;;;;;;;23.65;41.48;101976.91;6110892;23;20310;-73
2022/05/09 11:19:38;;;;;;;6.85;6.45;;;;;;;23.52;41.21;101930.72;6132283;23;20013;-72
2022/05/09 11:22:35;;;;;;;7.68;7.28;;;;;;;24.12;40.30;101976.38;6132918;23;20409;-73
2022/05/09 11:25:28;;;;;;;9.57;6.93;;;;;;;23.94;40.29;101968.13;6086306;23;20040;-73
2022/05/09 11:28:14;;;;;;;6.65;6.25;;;;;;;24.20;40.88;101970.31;6119620;23;20485;-73
2022/05/09 11:31:08;;;;;;;6.60;6.20;;;;;;;24.45;40.79;101940.25;6135007;23;20359;-73
2022/05/09 11:33:51;;;;;;;6.72;6.35;;;;;;;25.04;38.43;101977.88;6113143;23;20096;-73
2022/05/09 11:36:39;;;;;;;6.38;5.97;;;;;;;24.16;37.84;101867.81;6125831;23;20009;-72
2022/05/09 11:39:37;;;;;;;7.13;6.82;;;;;;;24.83;39.48;101962.75;6130623;23;20033;-73
2022/05/09 11:45:44;;;;;;;6.78;6.47;;;;;;;25.34;36.11;101954.47;6103772;23;20072;-74
2022/05/09 11:48:41;;;;;;;7.28;6.88;;;;;;;25.21;36.81;101961.00;6132465;23;20776;-74
2022/05/09 11:51:20;;;;;;;7.32;6.93;;;;;;;25.20;35.29;101947.72;6096754;23;20116;-73
2022/05/09 11:53:57;;;;;;;6.70;6.30;;;;;;;24.60;34.84;101889.72;6136727;23;20208;-72
2022/05/09 11:56:24;;;;;;;6.45;6.15;;;;;;;25.17;36.45;101942.63;6132517;23;20091;-72
2022/05/09 11:58:52;;;;;;;6.07;5.78;;;;;;;25.38;36.92;101934.38;6128329;23;20009;-73
2022/05/09 12:01:53;;;;;;;6.85;6.45;;;;;;;25.46;34.62;101927.28;6131402;23;20702;-71
2022/05/09 12:04:44;;;;;;;6.22;5.93;;;;;;;25.51;35.09;101923.31;6119646;23;20028;-73
2022/05/09 12:07:26;;;;;;;7.70;7.30;;;;;;;25.72;34.90;101925.72;6119532;23;20017;-72
2022/05/09 12:10:16;;;;;;;6.25;5.95;;;;;;;25.78;33.87;101926.00;6138060;23;20025;-71